Share

La Libertad, El Salvador

El Salvador International (MSLP) Elev 82 ft | 13.44 °N, 89.06 °W | Change Station

Current weather conditions updated 58 minutes ago

Partly Cloudy
Partly Cloudy
86 °F
Feels Like 95 °F
N
9
Wind Variable Wind from WSW
Sunrise 5:42 AM
Sunset 6:10 PM
Moon Waning Gibbous

Tomorrow is forecast to be nearly the same temperature as today.

Pressure 29.77 in
Visibility 6.2 miles
Clouds Few 6000 ft
Heat Index 95 °F
Dew Point 75 °F
Humidity 70%
Rainfall 0.00 in
Snow Depth Not available.
UV 0 out of 16
Pollen Not available.
Air Quality Not available.
Flu Activity Not available.
METAR MSLP 182350Z 24008KT 9999 FEW060 30/24 Q1008 A2979

More Conditions Fewer Conditions

Pressure 29.77 in
Visibility 6.2 miles
Clouds Few 6000 ft
Heat Index 95 °F
Dew Point 75 °F
Humidity 70%
Rainfall 0.00 in
Snow Depth Not available.
UV 0 out of 16
Pollen Not available.
Air Quality Not available.
Flu Activity Not available.
METAR MSLP 182350Z 24008KT 9999 FEW060 30/24 Q1008 A2979

More Conditions Fewer Conditions

10-Day Weather Forecast

Almanac

Astronomy

Apr. 18, 2014 Rise Set
Actual Time 5:42 AM CST 6:10 PM CST
Civil Twilight 5:20 AM CST 6:32 PM CST
Nautical Twilight 4:55 AM CST 6:57 PM CST
Astronomical Twilight 4:29 AM CST 7:23 PM CST
Moon 9:34 PM CST (4/18) 8:25 AM CST (4/18)
Length of Visible Light 13h 11m
Length of Day
12h 28m
Tomorrow will be 0m 42s longer.
Waning Gibbous, 84% of the Moon is Illuminated
Today
Waning Gibbous
Apr 22
Last Quarter
Apr 29
New
May 6
First Quarter
May 14
Full

Today's Extremes

Country Highs Country Lows

Community

  • Cloudy spring view
    Cloudy spring view
  • Old barn
    Old barn
  • What's for Lunch?
    What's for Lunch?
  • SUNRISE THROUGH THE TREES.
    SUNRISE THROUGH THE TREES.
  • Dog Wood Blossoms
    Dog Wood Blossoms

WunderPhotos

Upload Photos

1,702,549 photos uploaded!

WunderBlogs® & News

Nearby

Snow Depth

Not available.

Coastal Water Temperatures

Place Temperature
No Stations Reporting

Earthquake Activity

City Distance Mag. Time & Date
No recent earthquake activity has been reported nearby.
Minimum magnitude displayed is 2.5.

Nearby Weather Stations

Station Location Temp. Heat Index Dew Point Humidity Wind Precip. Elev Updated Type
Escalon - Zona Rosa, San Salvador 73.7 °F 73 °F 69 °F 86% SW  at  1.0 mph 0.00 in / hr 2605 ft 6:43 PM CST Normal
Boulevard Santa Elena, La Libertad 71.4 °F - 69 °F 92% West  at  0.7 mph 0.00 in / hr 2825 ft 6:47 PM CST Rapid Fire
Antiguo Cuscatlan 72.0 °F - 72 °F 99% South  at  2.2 mph 0.00 in / hr 2776 ft 6:47 PM CST Rapid Fire

Show More Stations Show Fewer Stations

What do you think?

We're not finished. Please let us know what you like, what you don't like, and what you are still missing.